sensor_id;sensor_type;location;lat;lon;timestamp;pressure;altitude;pressure_sealevel;temperature;humidity
38452;BME280;24231;52.514;13.438;2023-04-28T00:02:04;101475.23;;;11.62;34.63
38452;BME280;24231;52.514;13.438;2023-04-28T00:04:31;101475.06;;;9.58;38.11
38452;BME280;24231;52.514;13.438;2023-04-28T00:06:58;101474.03;;;9.85;37.72
38452;BME280;24231;52.514;13.438;2023-04-28T00:09:25;101473.97;;;9.50;38.19
38452;BME280;24231;52.514;13.438;2023-04-28T00:11:52;101473.56;;;9.78;37.74
38452;BME280;24231;52.514;13.438;2023-04-28T00:14:19;101474.37;;;9.61;37.85
38452;BME280;24231;52.514;13.438;2023-04-28T00:16:46;101479.39;;;8.74;39.47
38452;BME280;24231;52.514;13.438;2023-04-28T00:19:14;101479.60;;;8.67;39.76
38452;BME280;24231;52.514;13.438;2023-04-28T00:21:41;101480.00;;;8.47;40.42
38452;BME280;24231;52.514;13.438;2023-04-28T00:24:08;101477.44;;;8.36;41.05
38452;BME280;24231;52.514;13.438;2023-04-28T00:26:36;101475.75;;;7.75;41.92
38452;BME280;24231;52.514;13.438;2023-04-28T00:29:03;101477.60;;;8.05;41.59
38452;BME280;24231;52.514;13.438;2023-04-28T00:31:30;101477.71;;;7.93;41.65
38452;BME280;24231;52.514;13.438;2023-04-28T00:33:57;101465.68;;;9.32;39.31
38452;BME280;24231;52.514;13.438;2023-04-28T00:36:25;101461.53;;;10.35;37.94
38452;BME280;24231;52.514;13.438;2023-04-28T00:38:52;101455.78;;;11.24;35.99
38452;BME280;24231;52.514;13.438;2023-04-28T00:41:19;101460.58;;;9.79;37.84
38452;BME280;24231;52.514;13.438;2023-04-28T00:43:47;101460.31;;;9.99;37.89
38452;BME280;24231;52.514;13.438;2023-04-28T00:46:20;101457.65;;;9.52;38.89
38452;BME280;24231;52.514;13.438;2023-04-28T00:48:48;101456.98;;;9.00;39.07
38452;BME280;24231;52.514;13.438;2023-04-28T00:51:15;101457.29;;;8.05;41.73
38452;BME280;24231;52.514;13.438;2023-04-28T00:53:42;101450.18;;;9.74;38.79
38452;BME280;24231;52.514;13.438;2023-04-28T00:56:10;101448.61;;;8.75;40.24
38452;BME280;24231;52.514;13.438;2023-04-28T00:58:38;101458.62;;;8.01;42.76
38452;BME280;24231;52.514;13.438;2023-04-28T01:01:06;101451.07;;;8.53;41.84
38452;BME280;24231;52.514;13.438;2023-04-28T01:03:35;101454.16;;;7.90;43.02
38452;BME280;24231;52.514;13.438;2023-04-28T01:06:04;101450.00;;;8.28;42.26
38452;BME280;24231;52.514;13.438;2023-04-28T01:08:33;101445.05;;;9.14;40.74
38452;BME280;24231;52.514;13.438;2023-04-28T01:11:01;101446.52;;;8.28;42.46
38452;BME280;24231;52.514;13.438;2023-04-28T01:13:29;101442.54;;;8.35;42.91
38452;BME280;24231;52.514;13.438;2023-04-28T01:15:56;101440.39;;;8.37;42.63
38452;BME280;24231;52.514;13.438;2023-04-28T01:18:24;101435.55;;;9.04;41.09
38452;BME280;24231;52.514;13.438;2023-04-28T01:20:52;101440.32;;;8.10;43.04
38452;BME280;24231;52.514;13.438;2023-04-28T01:23:19;101442.04;;;6.94;45.67
38452;BME280;24231;52.514;13.438;2023-04-28T01:25:47;101442.38;;;6.46;46.98
38452;BME280;24231;52.514;13.438;2023-04-28T01:28:14;101435.07;;;7.16;45.64
38452;BME280;24231;52.514;13.438;2023-04-28T01:30:41;101435.04;;;7.58;44.21
38452;BME280;24231;52.514;13.438;2023-04-28T01:33:08;101431.72;;;7.19;45.08
38452;BME280;24231;52.514;13.438;2023-04-28T01:35:35;101430.97;;;8.03;43.16
38452;BME280;24231;52.514;13.438;2023-04-28T01:38:03;101421.45;;;9.21;40.89
38452;BME280;24231;52.514;13.438;2023-04-28T01:40:31;101422.39;;;8.57;42.21
38452;BME280;24231;52.514;13.438;2023-04-28T01:42:58;101419.54;;;8.90;42.02
38452;BME280;24231;52.514;13.438;2023-04-28T01:45:25;101429.46;;;6.54;47.45
38452;BME280;24231;52.514;13.438;2023-04-28T01:47:51;101424.32;;;6.74;47.62
38452;BME280;24231;52.514;13.438;2023-04-28T01:50:24;101424.91;;;7.59;45.94
38452;BME280;24231;52.514;13.438;2023-04-28T01:52:51;101426.90;;;7.70;45.16
38452;BME280;24231;52.514;13.438;2023-04-28T01:57:31;101419.24;;;7.55;45.20
38452;BME280;24231;52.514;13.438;2023-04-28T01:59:58;101418.42;;;7.21;45.64
38452;BME280;24231;52.514;13.438;2023-04-28T02:02:25;101417.47;;;6.61;48.26
38452;BME280;24231;52.514;13.438;2023-04-28T02:04:52;101417.33;;;7.31;46.69
38452;BME280;24231;52.514;13.438;2023-04-28T02:07:19;101414.98;;;7.03;46.67
38452;BME280;24231;52.514;13.438;2023-04-28T02:09:47;101415.94;;;7.58;45.30
38452;BME280;24231;52.514;13.438;2023-04-28T02:12:14;101414.89;;;7.26;45.81
38452;BME280;24231;52.514;13.438;2023-04-28T02:14:42;101416.15;;;6.44;48.36
38452;BME280;24231;52.514;13.438;2023-04-28T02:17:09;101418.58;;;7.67;44.38
38452;BME280;24231;52.514;13.438;2023-04-28T02:19:36;101417.50;;;7.27;45.81
38452;BME280;24231;52.514;13.438;2023-04-28T02:22:04;101418.47;;;6.37;48.02
38452;BME280;24231;52.514;13.438;2023-04-28T02:24:34;101413.95;;;6.71;47.10
38452;BME280;24231;52.514;13.438;2023-04-28T02:27:02;101410.69;;;8.23;43.93
38452;BME280;24231;52.514;13.438;2023-04-28T02:29:30;101411.13;;;6.47;47.96
38452;BME280;24231;52.514;13.438;2023-04-28T02:31:57;101410.90;;;7.98;44.29
38452;BME280;24231;52.514;13.438;2023-04-28T02:34:25;101412.16;;;5.84;50.39
38452;BME280;24231;52.514;13.438;2023-04-28T02:36:52;101412.09;;;5.25;52.49
38452;BME280;24231;52.514;13.438;2023-04-28T02:39:20;101412.79;;;5.14;53.13
38452;BME280;24231;52.514;13.438;2023-04-28T02:41:47;101402.73;;;6.01;50.16
38452;BME280;24231;52.514;13.438;2023-04-28T02:44:14;101399.64;;;6.71;48.70
38452;BME280;24231;52.514;13.438;2023-04-28T02:46:41;101399.17;;;6.15;49.60
38452;BME280;24231;52.514;13.438;2023-04-28T02:49:09;101403.03;;;5.75;50.70
38452;BME280;24231;52.514;13.438;2023-04-28T02:51:36;101397.56;;;6.40;49.40
38452;BME280;24231;52.514;13.438;2023-04-28T02:54:03;101394.55;;;7.26;46.54
38452;BME280;24231;52.514;13.438;2023-04-28T02:56:32;101394.13;;;6.79;47.62
38452;BME280;24231;52.514;13.438;2023-04-28T02:58:59;101395.74;;;6.44;49.02
38452;BME280;24231;52.514;13.438;2023-04-28T03:01:26;101395.54;;;5.64;51.38
38452;BME280;24231;52.514;13.438;2023-04-28T03:03:54;101397.40;;;5.66;51.36
38452;BME280;24231;52.514;13.438;2023-04-28T03:06:21;101397.95;;;5.61;50.89
38452;BME280;24231;52.514;13.438;2023-04-28T03:08:49;101391.58;;;6.95;48.34
38452;BME280;24231;52.514;13.438;2023-04-28T03:11:16;101393.74;;;5.89;49.98
38452;BME280;24231;52.514;13.438;2023-04-28T03:13:43;101388.71;;;6.99;47.74
38452;BME280;24231;52.514;13.438;2023-04-28T03:16:10;101392.95;;;5.48;51.41
38452;BME280;24231;52.514;13.438;2023-04-28T03:18:38;101390.63;;;6.08;50.00
38452;BME280;24231;52.514;13.438;2023-04-28T03:21:05;101387.29;;;5.84;50.13
38452;BME280;24231;52.514;13.438;2023-04-28T03:23:32;101390.98;;;5.57;50.81
38452;BME280;24231;52.514;13.438;2023-04-28T03:26:07;101386.63;;;5.73;49.99
38452;BME280;24231;52.514;13.438;2023-04-28T03:28:34;101383.79;;;6.08;48.20
38452;BME280;24231;52.514;13.438;2023-04-28T03:31:01;101380.98;;;6.05;49.73
38452;BME280;24231;52.514;13.438;2023-04-28T03:33:29;101377.78;;;6.04;49.64
38452;BME280;24231;52.514;13.438;2023-04-28T03:35:56;101379.17;;;5.86;49.87
38452;BME280;24231;52.514;13.438;2023-04-28T03:38:23;101379.47;;;5.68;50.24
38452;BME280;24231;52.514;13.438;2023-04-28T03:40:51;101375.01;;;5.79;49.82
38452;BME280;24231;52.514;13.438;2023-04-28T03:43:18;101372.12;;;5.96;49.72
38452;BME280;24231;52.514;13.438;2023-04-28T03:45:45;101369.32;;;6.37;48.26
38452;BME280;24231;52.514;13.438;2023-04-28T03:48:12;101374.28;;;5.51;50.63
38452;BME280;24231;52.514;13.438;2023-04-28T03:50:40;101376.04;;;5.35;51.25
38452;BME280;24231;52.514;13.438;2023-04-28T03:53:07;101372.12;;;4.90;53.22
38452;BME280;24231;52.514;13.438;2023-04-28T03:55:35;101373.31;;;5.67;51.59
38452;BME280;24231;52.514;13.438;2023-04-28T03:58:02;101370.67;;;4.61;54.27
38452;BME280;24231;52.514;13.438;2023-04-28T04:00:30;101366.94;;;4.67;55.58
38452;BME280;24231;52.514;13.438;2023-04-28T04:02:57;101366.98;;;4.96;54.28
38452;BME280;24231;52.514;13.438;2023-04-28T04:05:23;101365.00;;;5.31;53.04
38452;BME280;24231;52.514;13.438;2023-04-28T04:07:50;101360.71;;;5.42;52.57
38452;BME280;24231;52.514;13.438;2023-04-28T04:10:18;101357.29;;;4.72;55.08
38452;BME280;24231;52.514;13.438;2023-04-28T04:12:45;101356.97;;;5.62;52.37
38452;BME280;24231;52.514;13.438;2023-04-28T04:15:13;101359.59;;;5.62;52.12
38452;BME280;24231;52.514;13.438;2023-04-28T04:17:40;101355.74;;;5.83;51.67
38452;BME280;24231;52.514;13.438;2023-04-28T04:20:08;101358.66;;;5.24;52.88
38452;BME280;24231;52.514;13.438;2023-04-28T04:22:35;101361.99;;;5.18;53.16
38452;BME280;24231;52.514;13.438;2023-04-28T04:25:03;101362.28;;;5.11;54.11
38452;BME280;24231;52.514;13.438;2023-04-28T04:27:30;101361.55;;;5.91;51.96
38452;BME280;24231;52.514;13.438;2023-04-28T04:29:57;101356.61;;;6.99;48.65
38452;BME280;24231;52.514;13.438;2023-04-28T04:32:25;101353.65;;;7.02;47.95
38452;BME280;24231;52.514;13.438;2023-04-28T04:34:52;101347.80;;;6.53;49.30
38452;BME280;24231;52.514;13.438;2023-04-28T04:37:19;101347.61;;;7.32;47.32
38452;BME280;24231;52.514;13.438;2023-04-28T04:39:46;101345.71;;;7.51;46.22
38452;BME280;24231;52.514;13.438;2023-04-28T04:42:13;101344.41;;;7.34;46.60
38452;BME280;24231;52.514;13.438;2023-04-28T04:44:41;101341.15;;;7.76;46.17
38452;BME280;24231;52.514;13.438;2023-04-28T04:47:08;101338.79;;;7.60;46.31
38452;BME280;24231;52.514;13.438;2023-04-28T04:49:35;101327.70;;;8.46;43.97
38452;BME280;24231;52.514;13.438;2023-04-28T04:52:03;101326.65;;;7.83;44.88
38452;BME280;24231;52.514;13.438;2023-04-28T04:54:29;101333.57;;;7.04;47.05
38452;BME280;24231;52.514;13.438;2023-04-28T04:56:57;101327.92;;;8.34;44.33
38452;BME280;24231;52.514;13.438;2023-04-28T04:59:24;101326.85;;;8.24;44.63
38452;BME280;24231;52.514;13.438;2023-04-28T05:01:51;101327.93;;;7.67;45.42
38452;BME280;24231;52.514;13.438;2023-04-28T05:04:18;101319.90;;;8.99;42.74
38452;BME280;24231;52.514;13.438;2023-04-28T05:06:46;101317.92;;;8.87;42.27
38452;BME280;24231;52.514;13.438;2023-04-28T05:09:13;101314.24;;;9.95;40.63
38452;BME280;24231;52.514;13.438;2023-04-28T05:11:41;101314.96;;;8.51;43.18
38452;BME280;24231;52.514;13.438;2023-04-28T05:14:08;101311.55;;;10.64;39.07
38452;BME280;24231;52.514;13.438;2023-04-28T05:16:35;101308.57;;;10.74;38.61
38452;BME280;24231;52.514;13.438;2023-04-28T05:19:03;101301.27;;;12.95;34.26
38452;BME280;24231;52.514;13.438;2023-04-28T05:21:30;101309.28;;;10.22;38.24
38452;BME280;24231;52.514;13.438;2023-04-28T05:23:57;101308.63;;;10.40;38.73
38452;BME280;24231;52.514;13.438;2023-04-28T05:26:24;101307.43;;;10.17;39.57
38452;BME280;24231;52.514;13.438;2023-04-28T05:28:51;101308.20;;;10.70;38.29
38452;BME280;24231;52.514;13.438;2023-04-28T05:31:18;101301.86;;;11.79;36.09
38452;BME280;24231;52.514;13.438;2023-04-28T05:33:45;101300.90;;;13.17;33.67
38452;BME280;24231;52.514;13.438;2023-04-28T05:36:13;101303.95;;;10.81;38.21
38452;BME280;24231;52.514;13.438;2023-04-28T05:38:40;101299.85;;;10.30;38.92
38452;BME280;24231;52.514;13.438;2023-04-28T05:41:07;101296.67;;;11.50;36.64
38452;BME280;24231;52.514;13.438;2023-04-28T05:43:34;101290.48;;;12.22;35.28
38452;BME280;24231;52.514;13.438;2023-04-28T05:46:01;101287.99;;;12.42;34.93
38452;BME280;24231;52.514;13.438;2023-04-28T05:48:28;101284.09;;;11.53;36.12
38452;BME280;24231;52.514;13.438;2023-04-28T05:50:55;101284.00;;;11.11;37.32
38452;BME280;24231;52.514;13.438;2023-04-28T05:53:22;101278.22;;;12.08;35.40
38452;BME280;24231;52.514;13.438;2023-04-28T05:55:49;101274.15;;;12.01;35.79
38452;BME280;24231;52.514;13.438;2023-04-28T05:58:16;101277.02;;;11.89;35.81
38452;BME280;24231;52.514;13.438;2023-04-28T06:00:44;101273.15;;;12.54;34.71
38452;BME280;24231;52.514;13.438;2023-04-28T06:03:10;101271.50;;;13.07;33.87
38452;BME280;24231;52.514;13.438;2023-04-28T06:05:37;101279.41;;;10.60;38.05
38452;BME280;24231;52.514;13.438;2023-04-28T06:08:05;101281.20;;;10.80;38.61
38452;BME280;24231;52.514;13.438;2023-04-28T06:10:32;101283.26;;;10.77;38.34
38452;BME280;24231;52.514;13.438;2023-04-28T06:12:59;101281.04;;;10.85;38.05
38452;BME280;24231;52.514;13.438;2023-04-28T06:15:26;101276.91;;;11.28;37.22
38452;BME280;24231;52.514;13.438;2023-04-28T06:17:53;101268.23;;;12.16;35.98
38452;BME280;24231;52.514;13.438;2023-04-28T06:20:20;101268.88;;;11.52;36.74
38452;BME280;24231;52.514;13.438;2023-04-28T06:22:47;101269.89;;;11.67;36.77
38452;BME280;24231;52.514;13.438;2023-04-28T06:25:15;101258.24;;;12.05;36.47
38452;BME280;24231;52.514;13.438;2023-04-28T06:27:42;101250.63;;;13.23;33.86
38452;BME280;24231;52.514;13.438;2023-04-28T06:30:09;101252.09;;;13.04;33.93
38452;BME280;24231;52.514;13.438;2023-04-28T06:32:36;101246.75;;;12.87;34.00
38452;BME280;24231;52.514;13.438;2023-04-28T06:35:03;101243.36;;;12.88;34.30
38452;BME280;24231;52.514;13.438;2023-04-28T06:37:31;101239.41;;;13.46;33.03
38452;BME280;24231;52.514;13.438;2023-04-28T06:39:58;101238.20;;;12.81;33.78
38452;BME280;24231;52.514;13.438;2023-04-28T06:42:25;101238.95;;;13.02;33.91
38452;BME280;24231;52.514;13.438;2023-04-28T06:44:52;101240.88;;;12.94;34.20
38452;BME280;24231;52.514;13.438;2023-04-28T06:47:19;101240.91;;;13.09;33.84
38452;BME280;24231;52.514;13.438;2023-04-28T06:49:46;101239.21;;;13.17;33.71
38452;BME280;24231;52.514;13.438;2023-04-28T06:52:13;101237.83;;;13.20;34.08
38452;BME280;24231;52.514;13.438;2023-04-28T06:54:40;101227.51;;;13.27;33.69
38452;BME280;24231;52.514;13.438;2023-04-28T06:57:07;101227.46;;;13.38;33.51
38452;BME280;24231;52.514;13.438;2023-04-28T06:59:34;101222.54;;;14.15;32.15
38452;BME280;24231;52.514;13.438;2023-04-28T07:02:01;101221.09;;;12.84;34.28
38452;BME280;24231;52.514;13.438;2023-04-28T07:04:28;101216.50;;;12.72;33.84
38452;BME280;24231;52.514;13.438;2023-04-28T07:06:55;101217.66;;;13.02;33.49
38452;BME280;24231;52.514;13.438;2023-04-28T07:09:22;101217.34;;;12.68;33.60
38452;BME280;24231;52.514;13.438;2023-04-28T07:11:49;101210.04;;;13.13;32.41
38452;BME280;24231;52.514;13.438;2023-04-28T07:14:16;101207.80;;;13.13;32.85
38452;BME280;24231;52.514;13.438;2023-04-28T07:16:43;101208.93;;;12.96;32.76
38452;BME280;24231;52.514;13.438;2023-04-28T07:19:10;101198.47;;;13.77;31.37
38452;BME280;24231;52.514;13.438;2023-04-28T07:21:37;101202.44;;;13.84;30.82
38452;BME280;24231;52.514;13.438;2023-04-28T07:24:04;101196.78;;;13.87;30.79
38452;BME280;24231;52.514;13.438;2023-04-28T07:26:32;101196.12;;;14.29;30.33
38452;BME280;24231;52.514;13.438;2023-04-28T07:29:00;101189.08;;;14.02;30.74
38452;BME280;24231;52.514;13.438;2023-04-28T07:31:27;101195.47;;;14.54;30.05
38452;BME280;24231;52.514;13.438;2023-04-28T07:33:53;101187.03;;;14.14;30.30
38452;BME280;24231;52.514;13.438;2023-04-28T07:36:21;101182.26;;;14.10;30.36
38452;BME280;24231;52.514;13.438;2023-04-28T07:38:48;101187.61;;;13.96;30.82
38452;BME280;24231;52.514;13.438;2023-04-28T07:41:16;101178.78;;;14.32;30.30
38452;BME280;24231;52.514;13.438;2023-04-28T07:43:52;101181.98;;;14.04;30.43
38452;BME280;24231;52.514;13.438;2023-04-28T07:46:19;101175.44;;;13.75;31.02
38452;BME280;24231;52.514;13.438;2023-04-28T07:48:46;101171.70;;;13.65;31.22
38452;BME280;24231;52.514;13.438;2023-04-28T07:51:13;101173.24;;;14.12;30.36
38452;BME280;24231;52.514;13.438;2023-04-28T07:53:40;101173.46;;;14.44;30.11
38452;BME280;24231;52.514;13.438;2023-04-28T07:56:07;101166.95;;;14.30;30.39
38452;BME280;24231;52.514;13.438;2023-04-28T07:58:35;101165.13;;;13.27;31.93
38452;BME280;24231;52.514;13.438;2023-04-28T08:01:03;101164.23;;;13.75;31.76
38452;BME280;24231;52.514;13.438;2023-04-28T08:03:31;101161.71;;;14.20;30.88
38452;BME280;24231;52.514;13.438;2023-04-28T08:05:58;101164.18;;;14.45;30.61
38452;BME280;24231;52.514;13.438;2023-04-28T08:08:25;101161.15;;;14.29;30.97
38452;BME280;24231;52.514;13.438;2023-04-28T08:10:52;101154.86;;;14.29;30.86
38452;BME280;24231;52.514;13.438;2023-04-28T08:13:20;101156.20;;;13.85;31.35
38452;BME280;24231;52.514;13.438;2023-04-28T08:15:48;101152.41;;;14.38;30.81
38452;BME280;24231;52.514;13.438;2023-04-28T08:18:16;101151.47;;;14.25;30.77
38452;BME280;24231;52.514;13.438;2023-04-28T08:20:43;101155.36;;;14.02;30.98
38452;BME280;24231;52.514;13.438;2023-04-28T08:23:10;101157.26;;;14.07;31.08
38452;BME280;24231;52.514;13.438;2023-04-28T08:25:37;101153.49;;;14.44;30.77
38452;BME280;24231;52.514;13.438;2023-04-28T08:28:04;101154.29;;;14.27;30.90
38452;BME280;24231;52.514;13.438;2023-04-28T08:30:31;101148.24;;;14.39;30.96
38452;BME280;24231;52.514;13.438;2023-04-28T08:32:58;101141.26;;;14.70;30.60
38452;BME280;24231;52.514;13.438;2023-04-28T08:35:25;101149.99;;;14.58;30.53
38452;BME280;24231;52.514;13.438;2023-04-28T08:37:52;101153.22;;;14.56;30.80
38452;BME280;24231;52.514;13.438;2023-04-28T08:40:19;101139.62;;;14.66;30.91
38452;BME280;24231;52.514;13.438;2023-04-28T08:42:46;101142.21;;;14.69;30.50
38452;BME280;24231;52.514;13.438;2023-04-28T08:45:13;101137.37;;;15.66;29.41
38452;BME280;24231;52.514;13.438;2023-04-28T08:47:41;101131.30;;;14.83;30.24
38452;BME280;24231;52.514;13.438;2023-04-28T08:50:09;101132.90;;;15.01;29.89
38452;BME280;24231;52.514;13.438;2023-04-28T08:52:38;101132.21;;;14.00;31.20
38452;BME280;24231;52.514;13.438;2023-04-28T08:55:06;101124.30;;;14.78;30.47
38452;BME280;24231;52.514;13.438;2023-04-28T08:57:37;101132.03;;;14.97;29.99
38452;BME280;24231;52.514;13.438;2023-04-28T09:00:06;101114.82;;;14.87;29.98
38452;BME280;24231;52.514;13.438;2023-04-28T09:02:33;101115.21;;;14.82;29.72
38452;BME280;24231;52.514;13.438;2023-04-28T09:05:00;101113.90;;;14.90;29.97
38452;BME280;24231;52.514;13.438;2023-04-28T09:07:28;101104.66;;;15.03;29.75
38452;BME280;24231;52.514;13.438;2023-04-28T09:10:15;101110.95;;;13.72;31.25
38452;BME280;24231;52.514;13.438;2023-04-28T09:12:42;101104.88;;;14.47;30.73
38452;BME280;24231;52.514;13.438;2023-04-28T09:15:10;101094.83;;;14.13;31.29
38452;BME280;24231;52.514;13.438;2023-04-28T09:17:46;101095.11;;;14.65;30.43
38452;BME280;24231;52.514;13.438;2023-04-28T09:20:19;101089.12;;;14.52;30.51
38452;BME280;24231;52.514;13.438;2023-04-28T09:22:46;101085.38;;;14.30;30.55
38452;BME280;24231;52.514;13.438;2023-04-28T09:25:13;101082.05;;;14.61;30.34
38452;BME280;24231;52.514;13.438;2023-04-28T09:27:41;101076.66;;;14.51;30.59
38452;BME280;24231;52.514;13.438;2023-04-28T09:30:09;101081.31;;;14.66;30.46
38452;BME280;24231;52.514;13.438;2023-04-28T09:32:36;101076.67;;;14.91;30.23
38452;BME280;24231;52.514;13.438;2023-04-28T09:35:04;101072.33;;;14.74;30.69
38452;BME280;24231;52.514;13.438;2023-04-28T09:37:31;101069.06;;;14.70;30.72
38452;BME280;24231;52.514;13.438;2023-04-28T09:40:04;101060.89;;;14.89;30.48
38452;BME280;24231;52.514;13.438;2023-04-28T09:42:43;101063.05;;;15.04;30.32
38452;BME280;24231;52.514;13.438;2023-04-28T09:45:11;101063.11;;;14.94;30.55
38452;BME280;24231;52.514;13.438;2023-04-28T09:47:40;101051.18;;;14.74;31.33
38452;BME280;24231;52.514;13.438;2023-04-28T09:50:09;101055.73;;;14.46;31.29
38452;BME280;24231;52.514;13.438;2023-04-28T09:52:37;101051.61;;;14.40;31.43
38452;BME280;24231;52.514;13.438;2023-04-28T09:55:06;101046.80;;;14.69;31.03
38452;BME280;24231;52.514;13.438;2023-04-28T09:57:34;101046.10;;;14.65;31.29
38452;BME280;24231;52.514;13.438;2023-04-28T10:00:04;101043.97;;;14.99;30.90
38452;BME280;24231;52.514;13.438;2023-04-28T10:02:34;101047.14;;;14.66;31.11
38452;BME280;24231;52.514;13.438;2023-04-28T10:05:01;101048.10;;;14.67;31.27
38452;BME280;24231;52.514;13.438;2023-04-28T10:07:28;101042.63;;;14.95;31.12
38452;BME280;24231;52.514;13.438;2023-04-28T10:09:55;101039.80;;;14.90;31.37
38452;BME280;24231;52.514;13.438;2023-04-28T10:12:23;101057.97;;;14.27;32.00
38452;BME280;24231;52.514;13.438;2023-04-28T10:14:51;101039.42;;;14.84;31.95
38452;BME280;24231;52.514;13.438;2023-04-28T10:17:18;101038.04;;;14.84;31.47
38452;BME280;24231;52.514;13.438;2023-04-28T10:19:46;101029.32;;;15.09;30.82
38452;BME280;24231;52.514;13.438;2023-04-28T10:22:28;101022.90;;;15.09;31.02
38452;BME280;24231;52.514;13.438;2023-04-28T10:25:14;101019.63;;;15.18;30.81
38452;BME280;24231;52.514;13.438;2023-04-28T10:27:45;101012.93;;;15.03;30.98
38452;BME280;24231;52.514;13.438;2023-04-28T10:30:14;101019.43;;;15.13;30.95
38452;BME280;24231;52.514;13.438;2023-04-28T10:32:41;101015.15;;;14.98;31.25
38452;BME280;24231;52.514;13.438;2023-04-28T10:35:43;101018.48;;;14.92;31.67
38452;BME280;24231;52.514;13.438;2023-04-28T10:38:12;101008.60;;;14.77;31.86
38452;BME280;24231;52.514;13.438;2023-04-28T10:40:40;101003.53;;;15.15;31.46
38452;BME280;24231;52.514;13.438;2023-04-28T10:43:09;101006.29;;;15.16;30.89
38452;BME280;24231;52.514;13.438;2023-04-28T10:46:09;101010.12;;;15.01;31.47
38452;BME280;24231;52.514;13.438;2023-04-28T10:48:54;100999.30;;;14.97;31.74
38452;BME280;24231;52.514;13.438;2023-04-28T10:51:26;100993.28;;;15.45;30.89
38452;BME280;24231;52.514;13.438;2023-04-28T10:54:14;100987.33;;;15.17;31.21
38452;BME280;24231;52.514;13.438;2023-04-28T10:57:14;101000.16;;;14.85;31.99
38452;BME280;24231;52.514;13.438;2023-04-28T10:59:41;100992.79;;;15.54;31.28
38452;BME280;24231;52.514;13.438;2023-04-28T11:02:41;100989.11;;;14.94;32.25
38452;BME280;24231;52.514;13.438;2023-04-28T11:05:12;100980.31;;;14.84;32.08
38452;BME280;24231;52.514;13.438;2023-04-28T11:07:39;100976.55;;;15.26;31.55
38452;BME280;24231;52.514;13.438;2023-04-28T11:10:07;100973.64;;;15.52;30.94
38452;BME280;24231;52.514;13.438;2023-04-28T11:12:34;100983.61;;;14.42;32.34
38452;BME280;24231;52.514;13.438;2023-04-28T11:15:17;100967.08;;;15.35;31.37
38452;BME280;24231;52.514;13.438;2023-04-28T11:17:44;100966.48;;;15.02;31.89
38452;BME280;24231;52.514;13.438;2023-04-28T11:20:14;100976.53;;;15.45;31.58
38452;BME280;24231;52.514;13.438;2023-04-28T11:22:45;100964.17;;;15.78;30.64
38452;BME280;24231;52.514;13.438;2023-04-28T11:25:17;100966.21;;;15.51;31.11
38452;BME280;24231;52.514;13.438;2023-04-28T11:27:44;100971.36;;;15.29;31.72
38452;BME280;24231;52.514;13.438;2023-04-28T11:30:26;100970.42;;;15.62;30.88
38452;BME280;24231;52.514;13.438;2023-04-28T11:32:53;100964.44;;;15.59;31.23
38452;BME280;24231;52.514;13.438;2023-04-28T11:35:20;100966.25;;;15.06;31.93
38452;BME280;24231;52.514;13.438;2023-04-28T11:38:01;100963.47;;;14.93;32.21
38452;BME280;24231;52.514;13.438;2023-04-28T11:40:28;100964.76;;;15.18;31.96
38452;BME280;24231;52.514;13.438;2023-04-28T11:42:55;100962.86;;;15.14;31.95
38452;BME280;24231;52.514;13.438;2023-04-28T11:45:24;100955.99;;;15.30;31.52
38452;BME280;24231;52.514;13.438;2023-04-28T11:47:51;100956.05;;;15.31;31.60
38452;BME280;24231;52.514;13.438;2023-04-28T11:50:34;100954.23;;;15.01;31.92
38452;BME280;24231;52.514;13.438;2023-04-28T11:53:01;100956.16;;;15.12;31.80
38452;BME280;24231;52.514;13.438;2023-04-28T11:55:28;100951.98;;;15.13;31.85
38452;BME280;24231;52.514;13.438;2023-04-28T11:58:19;100949.09;;;15.15;31.60
38452;BME280;24231;52.514;13.438;2023-04-28T12:01:11;100944.28;;;14.97;32.21
38452;BME280;24231;52.514;13.438;2023-04-28T12:03:44;100939.32;;;14.80;32.15
38452;BME280;24231;52.514;13.438;2023-04-28T12:06:11;100943.19;;;14.72;32.80
38452;BME280;24231;52.514;13.438;2023-04-28T12:08:38;100946.30;;;14.85;32.72
38452;BME280;24231;52.514;13.438;2023-04-28T12:11:07;100937.52;;;15.17;32.56
38452;BME280;24231;52.514;13.438;2023-04-28T12:13:34;100935.03;;;15.18;32.54
38452;BME280;24231;52.514;13.438;2023-04-28T12:16:01;100932.89;;;15.19;32.75
38452;BME280;24231;52.514;13.438;2023-04-28T12:18:28;100931.11;;;15.85;31.75
38452;BME280;24231;52.514;13.438;2023-04-28T12:20:55;100926.68;;;15.34;32.37
38452;BME280;24231;52.514;13.438;2023-04-28T12:23:28;100928.40;;;15.21;32.77
38452;BME280;24231;52.514;13.438;2023-04-28T12:25:56;100925.38;;;15.35;32.19
38452;BME280;24231;52.514;13.438;2023-04-28T12:28:35;100916.59;;;15.44;31.93
38452;BME280;24231;52.514;13.438;2023-04-28T12:31:04;100917.34;;;16.29;31.12
38452;BME280;24231;52.514;13.438;2023-04-28T12:33:31;100909.19;;;15.84;31.73
38452;BME280;24231;52.514;13.438;2023-04-28T12:35:58;100922.22;;;16.27;31.05
38452;BME280;24231;52.514;13.438;2023-04-28T12:38:25;100921.10;;;15.60;32.30
38452;BME280;24231;52.514;13.438;2023-04-28T12:40:53;100907.57;;;15.27;32.60
38452;BME280;24231;52.514;13.438;2023-04-28T12:43:20;100918.50;;;16.29;31.46
38452;BME280;24231;52.514;13.438;2023-04-28T12:45:48;100910.63;;;15.39;32.84
38452;BME280;24231;52.514;13.438;2023-04-28T12:48:15;100908.24;;;14.90;33.59
38452;BME280;24231;52.514;13.438;2023-04-28T12:50:42;100900.37;;;15.41;32.85
38452;BME280;24231;52.514;13.438;2023-04-28T12:53:09;100897.56;;;16.43;31.25